Time;durP1;ratioP1;P1;durP2;ratioP2;P2;SDS_P1;SDS_P2;PMS_P1;PMS_P2;Temp;Humidity;BMP_temperature;BMP_pressure;BME280_temperature;BME280_humidity;BME280_pressure;Samples;Min_cycle;Max_cycle;Signal;HPM_P1;HPM_P2
2022/11/01 00:04:10;;;;;;;24.63;22.35;;;;;;;10.54;100.00;99877.25;10462353;28;20103;-71
2022/11/01 00:09:11;;;;;;;27.55;23.77;;;;;;;10.56;100.00;99879.81;10463941;28;20544;-71
2022/11/01 00:14:18;;;;;;;27.48;24.58;;;;;;;10.54;100.00;99879.03;10462342;28;20049;-71
2022/11/01 00:19:20;;;;;;;;;;;;;;;10.59;100.00;99882.38;10463970;28;20098;-72
2022/11/01 00:24:21;;;;;;;31.58;28.17;;;;;;;10.77;100.00;99876.47;10463222;28;19928;-72
2022/11/01 00:29:23;;;;;;;35.90;30.58;;;;;;;10.97;100.00;99878.38;10463413;28;20509;-72
2022/11/01 00:34:25;;;;;;;38.08;29.83;;;;;;;11.02;100.00;99875.56;10461907;28;20056;-71
2022/11/01 00:39:26;;;;;;;38.00;32.22;;;;;;;10.99;100.00;99873.06;10462680;28;20044;-71
2022/11/01 00:44:31;;;;;;;47.83;33.53;;;;;;;10.78;100.00;99880.81;10463084;28;20041;-72
2022/11/01 00:49:33;;;;;;;44.20;34.05;;;;;;;10.72;100.00;99880.16;10461217;28;20414;-72
2022/11/01 00:54:35;;;;;;;42.28;34.55;;;;;;;10.68;100.00;99863.63;10462277;28;20052;-73
2022/11/01 00:59:36;;;;;;;44.92;35.35;;;;;;;10.61;100.00;99860.34;10461951;28;20048;-71
2022/11/01 01:04:42;;;;;;;39.08;33.60;;;;;;;10.87;100.00;99850.69;10461810;28;20040;-72
2022/11/01 01:09:43;;;;;;;41.80;34.45;;;;;;;10.73;100.00;99851.19;10461541;28;20044;-71
2022/11/01 01:14:45;;;;;;;52.50;39.20;;;;;;;10.59;100.00;99843.78;10461890;28;20041;-71
2022/11/01 01:19:46;;;;;;;51.30;39.67;;;;;;;10.64;100.00;99848.88;10461077;28;20091;-71
2022/11/01 01:24:48;;;;;;;57.10;40.10;;;;;;;10.59;100.00;99838.53;10460615;28;20044;-71
2022/11/01 01:29:50;;;;;;;76.70;44.22;;;;;;;10.75;100.00;99825.69;10460476;28;20508;-72
2022/11/01 01:34:52;;;;;;;56.83;43.50;;;;;;;11.00;100.00;99824.81;10461029;28;20040;-71
2022/11/01 01:39:54;;;;;;;65.15;46.35;;;;;;;10.94;100.00;99820.66;10459955;28;20040;-71
2022/11/01 01:44:55;;;;;;;72.85;46.03;;;;;;;10.79;100.00;99814.16;10458422;28;20072;-72
2022/11/01 01:50:00;;;;;;;70.85;47.85;;;;;;;10.79;100.00;99811.53;10458271;28;20119;-71
2022/11/01 01:55:06;;;;;;;75.97;48.83;;;;;;;11.00;100.00;99804.63;10459241;28;20041;-72
2022/11/01 02:00:08;;;;;;;73.33;48.77;;;;;;;10.99;100.00;99813.44;10458963;28;20071;-71
2022/11/01 02:05:35;;;;;;;62.00;36.87;;;;;;;10.97;100.00;99811.75;10457617;28;20045;-71
2022/11/01 02:10:37;;;;;;;71.93;46.58;;;;;;;11.07;100.00;99829.81;10458855;28;20076;-71
2022/11/01 02:15:51;;;;;;;65.82;45.22;;;;;;;11.16;100.00;99825.13;10459139;28;20045;-71
2022/11/01 02:21:16;;;;;;;66.78;43.70;;;;;;;10.89;100.00;99830.47;10458551;28;20052;-71
2022/11/01 02:26:48;;;;;;;69.18;45.22;;;;;;;10.67;100.00;99826.88;10457999;28;20037;-71
2022/11/01 02:32:09;;;;;;;66.55;44.58;;;;;;;10.56;100.00;99817.59;10458137;28;20476;-72
2022/11/01 02:37:33;;;;;;;57.95;41.65;;;;;;;10.75;100.00;99814.31;10456621;28;20036;-72
2022/11/01 02:42:45;;;;;;;61.92;40.13;;;;;;;10.69;100.00;99809.28;10457944;28;20383;-71
2022/11/01 02:47:46;;;;;;;56.90;41.28;;;;;;;10.61;100.00;99809.56;10456531;28;20065;-72
2022/11/01 02:52:48;;;;;;;62.63;39.95;;;;;;;10.35;100.00;99813.94;10457575;28;20045;-72
2022/11/01 02:57:50;;;;;;;60.33;38.25;;;;;;;10.33;100.00;99807.03;10457295;28;20053;-71
2022/11/01 03:03:03;;;;;;;50.97;37.47;;;;;;;10.48;100.00;99816.16;10457791;28;20048;-71
2022/11/01 03:08:18;;;;;;;60.65;38.40;;;;;;;10.27;100.00;99823.00;10456459;28;20040;-71
2022/11/01 03:13:59;;;;;;;50.83;36.95;;;;;;;10.21;100.00;99808.28;10457535;28;20067;-71
2022/11/01 03:19:33;;;;;;;56.20;37.33;;;;;;;10.63;100.00;99809.53;10457954;28;20044;-71
2022/11/01 03:24:55;;;;;;;49.20;36.05;;;;;;;10.57;100.00;99815.81;10458835;28;20456;-71
2022/11/01 03:30:12;;;;;;;39.90;30.63;;;;;;;10.59;100.00;99807.00;10457681;28;20045;-70
2022/11/01 03:35:18;;;;;;;36.40;29.27;;;;;;;10.55;100.00;99815.91;10457483;28;20041;-71
2022/11/01 03:40:21;;;;;;;30.48;27.08;;;;;;;10.48;100.00;99818.78;10456782;28;20511;-71
2022/11/01 03:45:25;;;;;;;30.17;26.65;;;;;;;10.53;100.00;99832.63;10455168;28;20098;-72
2022/11/01 03:50:28;;;;;;;26.70;24.15;;;;;;;10.70;100.00;99838.16;10454984;28;20045;-71
2022/11/01 03:55:29;;;;;;;23.10;20.88;;;;;;;10.77;100.00;99844.06;10456625;28;20045;-71
2022/11/01 04:00:35;;;;;;;23.42;21.42;;;;;;;10.67;100.00;99854.03;10456251;28;20045;-72
2022/11/01 04:05:38;;;;;;;22.98;20.98;;;;;;;10.59;100.00;99861.34;10456948;28;20063;-72
2022/11/01 04:10:40;;;;;;;23.15;21.25;;;;;;;10.69;100.00;99861.88;10456251;28;20044;-71
2022/11/01 04:21:06;;;;;;;21.02;19.23;;;;;;;10.53;100.00;99866.78;10455809;28;20102;-71
2022/11/01 04:26:11;;;;;;;21.73;19.73;;;;;;;10.44;100.00;99867.09;10460803;28;20041;-72
2022/11/01 04:31:13;;;;;;;21.67;19.98;;;;;;;10.26;100.00;99864.16;10464111;28;20414;-72
2022/11/01 04:36:15;;;;;;;21.88;20.08;;;;;;;10.32;100.00;99877.13;10463094;28;20486;-71
2022/11/01 04:41:18;;;;;;;21.35;19.10;;;;;;;10.31;100.00;99875.41;10447011;28;20053;-71
2022/11/01 04:46:20;;;;;;;19.52;17.65;;;;;;;10.29;100.00;99865.84;10463799;28;20033;-71
2022/11/01 04:51:22;;;;;;;18.98;17.33;;;;;;;10.33;100.00;99868.31;10462216;28;20048;-72
2022/11/01 04:56:23;;;;;;;17.88;16.52;;;;;;;10.26;100.00;99860.69;10463248;28;20095;-72
2022/11/01 05:01:25;;;;;;;19.55;17.30;;;;;;;10.18;100.00;99865.31;10461174;28;20075;-71
2022/11/01 05:06:28;;;;;;;17.10;15.75;;;;;;;10.05;100.00;99852.59;10460065;28;20045;-71
2022/11/01 05:11:30;;;;;;;19.00;17.08;;;;;;;10.11;100.00;99855.00;10461321;28;20045;-72
2022/11/01 05:16:31;;;;;;;17.58;16.17;;;;;;;10.00;100.00;99854.47;10461549;28;20049;-72
2022/11/01 05:21:33;;;;;;;18.58;16.88;;;;;;;9.92;100.00;99847.78;10448982;22;20045;-70
2022/11/01 05:26:34;;;;;;;16.88;15.43;;;;;;;9.87;100.00;99847.91;10435426;28;20042;-72
2022/11/01 05:31:36;;;;;;;17.42;15.90;;;;;;;9.81;100.00;99858.63;10419359;28;20045;-70
2022/11/01 05:36:38;;;;;;;18.00;16.30;;;;;;;9.76;100.00;99858.75;10420669;28;20039;-68
2022/11/01 05:41:40;;;;;;;22.95;15.98;;;;;;;9.77;100.00;99857.00;10419926;28;20041;-68
2022/11/01 05:46:41;;;;;;;16.75;15.45;;;;;;;9.72;100.00;99854.50;10419797;28;20396;-69
2022/11/01 05:51:43;;;;;;;17.52;16.23;;;;;;;9.74;100.00;99857.06;10417216;28;20053;-69
2022/11/01 05:56:45;;;;;;;17.67;16.17;;;;;;;9.84;100.00;99859.38;10418161;28;20045;-69
2022/11/01 06:01:46;;;;;;;18.83;17.20;;;;;;;9.73;100.00;99860.63;10418524;28;20045;-69
2022/11/01 06:06:48;;;;;;;18.45;16.95;;;;;;;9.74;100.00;99855.34;10419361;28;20041;-68
2022/11/01 06:11:50;;;;;;;19.20;17.52;;;;;;;9.77;100.00;99870.97;10416471;28;20099;-69
2022/11/01 06:16:51;;;;;;;17.58;16.08;;;;;;;9.82;100.00;99870.81;10417634;28;20080;-69
2022/11/01 06:21:53;;;;;;;20.00;17.67;;;;;;;9.80;100.00;99868.25;10416976;28;20041;-69
2022/11/01 06:26:54;;;;;;;19.27;17.55;;;;;;;9.83;100.00;99885.69;10417748;28;20521;-69
2022/11/01 06:31:56;;;;;;;18.58;17.08;;;;;;;9.71;100.00;99901.81;10416796;28;20449;-69
2022/11/01 06:36:58;;;;;;;17.80;16.38;;;;;;;9.71;100.00;99902.66;10416510;28;20372;-69
2022/11/01 06:42:00;;;;;;;18.52;17.10;;;;;;;9.74;100.00;99909.56;10416924;28;20072;-70
2022/11/01 06:47:02;;;;;;;18.42;16.83;;;;;;;9.98;100.00;99915.84;10415152;28;20041;-69
2022/11/01 06:52:04;;;;;;;19.85;17.42;;;;;;;10.19;100.00;99902.03;10418427;28;20072;-69
2022/11/01 06:57:05;;;;;;;19.77;17.98;;;;;;;10.18;100.00;99917.84;10416297;28;20124;-69
2022/11/01 07:02:08;;;;;;;16.80;15.40;;;;;;;10.16;100.00;99935.44;10415795;28;20041;-69
2022/11/01 07:07:15;;;;;;;19.73;17.92;;;;;;;10.22;100.00;99932.59;10415665;28;20037;-69
2022/11/01 07:12:17;;;;;;;20.17;18.48;;;;;;;10.41;100.00;99936.41;10416198;28;20083;-69
2022/11/01 07:17:19;;;;;;;17.90;16.35;;;;;;;10.49;100.00;99947.53;10416107;28;20107;-69
2022/11/01 07:22:20;;;;;;;19.33;17.38;;;;;;;10.54;100.00;99932.44;10415308;28;20077;-69
2022/11/01 07:27:22;;;;;;;18.50;16.80;;;;;;;10.56;100.00;99946.38;10415585;28;20045;-69
2022/11/01 07:32:23;;;;;;;18.83;17.13;;;;;;;10.74;100.00;99954.56;10415070;28;20050;-69
2022/11/01 07:37:28;;;;;;;18.77;16.98;;;;;;;10.74;100.00;99958.06;10414555;28;20457;-69
2022/11/01 07:42:29;;;;;;;33.15;18.55;;;;;;;10.99;100.00;99955.47;10416012;28;20073;-69
2022/11/01 07:47:31;;;;;;;18.30;16.60;;;;;;;11.17;100.00;99968.88;10414225;28;20092;-69
2022/11/01 07:52:33;;;;;;;18.58;16.52;;;;;;;11.36;100.00;99965.53;10414918;28;20049;-68
2022/11/01 07:57:39;;;;;;;16.63;15.25;;;;;;;11.32;100.00;99963.06;10416610;28;20041;-68
2022/11/01 08:02:40;;;;;;;17.37;15.73;;;;;;;11.51;100.00;99974.66;10404666;28;20148;-68
2022/11/01 08:07:42;;;;;;;17.40;15.85;;;;;;;11.72;100.00;99964.22;10421864;28;20041;-69
2022/11/01 08:12:44;;;;;;;16.35;14.95;;;;;;;11.93;100.00;99971.38;10422210;28;20049;-68
2022/11/01 08:17:45;;;;;;;16.70;15.27;;;;;;;12.05;100.00;99975.31;10422201;28;20041;-68
2022/11/01 08:22:47;;;;;;;15.57;14.32;;;;;;;12.30;100.00;99969.91;10421654;28;20042;-69
2022/11/01 08:27:49;;;;;;;15.95;14.75;;;;;;;12.18;100.00;99983.59;10421849;28;20037;-68
2022/11/01 08:32:57;;;;;;;15.65;14.48;;;;;;;12.41;100.00;99985.31;10421447;28;20054;-68
2022/11/01 08:38:00;;;;;;;15.35;13.98;;;;;;;12.55;100.00;99982.97;10422036;28;20044;-69
2022/11/01 08:43:01;;;;;;;15.35;13.95;;;;;;;12.87;95.00;100008.03;10421412;28;20132;-68
2022/11/01 08:48:04;;;;;;;23.23;21.55;;;;;;;12.76;96.19;100005.00;10402931;28;20037;-68
2022/11/01 08:53:11;;;;;;;14.20;13.00;;;;;;;12.68;98.78;100017.63;10420891;28;20045;-68
2022/11/01 08:58:12;;;;;;;13.30;12.25;;;;;;;12.85;97.88;100023.94;10419442;28;20049;-68
2022/11/01 09:03:14;;;;;;;13.75;12.65;;;;;;;13.00;95.91;100030.34;10422407;28;20632;-71
2022/11/01 09:08:17;;;;;;;14.10;12.80;;;;;;;12.98;98.67;100023.41;10425448;28;20483;-72
2022/11/01 09:13:19;;;;;;;14.10;12.90;;;;;;;13.12;97.65;100018.41;10391796;28;20060;-72
2022/11/01 09:18:21;;;;;;;13.63;12.57;;;;;;;13.50;94.33;100022.09;10426694;28;20045;-72
2022/11/01 09:23:22;;;;;;;13.18;12.05;;;;;;;13.65;92.46;100019.69;10431409;28;20103;-72
2022/11/01 09:28:24;;;;;;;13.45;12.02;;;;;;;13.82;90.15;100023.28;10428343;28;20048;-72
2022/11/01 09:33:31;;;;;;;13.30;12.27;;;;;;;13.86;91.54;100024.88;10427356;28;20076;-72
2022/11/01 09:38:34;;;;;;;13.70;12.63;;;;;;;13.92;92.74;100028.16;10426242;28;20280;-72
2022/11/01 09:43:39;;;;;;;13.90;12.50;;;;;;;14.10;91.87;100029.94;10429622;28;20041;-72
2022/11/01 09:48:43;;;;;;;15.55;12.73;;;;;;;14.37;88.05;100033.06;10432607;28;20042;-73
2022/11/01 09:53:45;;;;;;;13.13;11.77;;;;;;;14.31;89.99;100042.16;10431041;28;20053;-72
2022/11/01 09:59:04;;;;;;;12.80;11.55;;;;;;;14.14;92.07;100056.16;10413100;28;20046;-72
2022/11/01 10:04:08;;;;;;;13.52;12.43;;;;;;;14.18;92.21;100050.75;10429157;28;20041;-72
2022/11/01 10:09:39;;;;;;;13.00;11.88;;;;;;;14.60;88.51;100051.38;10430609;28;20038;-72
2022/11/01 10:15:18;;;;;;;13.60;12.35;;;;;;;14.58;88.85;100044.47;10425962;28;20113;-73
2022/11/01 10:20:25;;;;;;;12.95;11.95;;;;;;;14.79;87.10;100061.09;10425924;28;20136;-73
2022/11/01 10:25:29;;;;;;;;;;;;;;;14.80;87.15;100073.38;10428479;28;20049;-72
2022/11/01 10:30:46;;;;;;;15.13;13.65;;;;;;;14.79;88.45;100064.59;10433076;28;19967;-71
2022/11/01 10:35:52;;;;;;;12.93;11.88;;;;;;;14.99;87.41;100066.25;10430337;28;20042;-71
2022/11/01 10:41:00;;;;;;;13.70;12.33;;;;;;;15.06;88.06;100072.97;10429333;28;20099;-72
2022/11/01 10:46:06;;;;;;;14.00;12.73;;;;;;;15.22;86.69;100072.19;10435246;28;20045;-71
2022/11/01 10:51:10;;;;;;;13.77;12.63;;;;;;;15.24;88.72;100071.19;10458162;28;20107;-72
2022/11/01 10:56:23;;;;;;;14.07;13.05;;;;;;;15.45;86.59;100057.75;10468856;28;20068;-73
2022/11/01 11:01:30;;;;;;;16.02;14.52;;;;;;;15.19;90.19;100048.53;10442860;28;20057;-73
2022/11/01 11:06:35;;;;;;;15.20;13.88;;;;;;;15.37;87.25;100055.53;10430737;28;20063;-72
2022/11/01 11:11:41;;;;;;;15.50;13.20;;;;;;;15.57;87.01;100046.53;10474088;28;20040;-73
2022/11/01 11:16:56;;;;;;;15.38;12.38;;;;;;;15.56;87.44;100031.59;10471478;28;20041;-73
2022/11/01 11:22:05;;;;;;;12.82;11.68;;;;;;;15.61;85.60;100040.16;10474093;22;20041;-71
2022/11/01 11:27:22;;;;;;;14.15;12.73;;;;;;;15.64;85.82;100048.84;10459930;28;20037;-72
2022/11/01 11:32:27;;;;;;;13.32;12.07;;;;;;;15.87;84.34;100047.63;10474025;28;20045;-70
2022/11/01 11:37:33;;;;;;;12.00;11.10;;;;;;;16.11;84.76;100061.38;10493549;28;20052;-71
2022/11/01 11:42:35;;;;;;;16.13;11.40;;;;;;;16.04;84.21;100065.28;10506040;28;20040;-70
2022/11/01 11:47:37;;;;;;;12.80;11.57;;;;;;;16.27;81.94;100057.84;10465482;28;20400;-71
2022/11/01 11:52:39;;;;;;;14.43;11.68;;;;;;;15.89;84.48;100058.13;10464243;28;20482;-70
2022/11/01 11:57:50;;;;;;;12.18;10.95;;;;;;;15.90;85.47;100067.81;10463940;28;20449;-73
2022/11/01 12:02:52;;;;;;;11.80;10.80;;;;;;;15.93;84.09;100074.72;10464486;28;20132;-71
2022/11/01 12:07:55;;;;;;;11.27;10.27;;;;;;;16.18;83.62;100074.28;10462351;28;20082;-71
2022/11/01 12:12:57;;;;;;;9.90;9.10;;;;;;;16.21;83.55;100068.81;10465980;28;20037;-73
2022/11/01 12:18:13;;;;;;;8.57;7.80;;;;;;;16.28;84.10;100075.47;10480681;28;20056;-71
2022/11/01 12:23:38;;;;;;;8.43;4.05;;;;;;;16.61;83.76;100064.81;10463517;28;20056;-72
2022/11/01 12:29:06;;;;;;;5.13;2.78;;;;;;;17.18;78.37;100072.19;10465163;28;20446;-71
2022/11/01 12:34:17;;;;;;;5.00;2.58;;;;;;;17.44;76.99;100073.31;10465086;28;20049;-70
2022/11/01 12:39:39;;;;;;;4.95;2.53;;;;;;;17.67;76.66;100075.47;10464501;28;20441;-70
2022/11/01 12:45:09;;;;;;;6.28;2.00;;;;;;;17.70;75.17;100071.75;10461359;28;20448;-70
2022/11/01 12:50:20;;;;;;;6.80;4.10;;;;;;;17.75;74.05;100075.00;10462812;28;20444;-70
2022/11/01 12:55:40;;;;;;;5.07;2.33;;;;;;;17.79;74.12;100084.50;10462834;28;20045;-70
2022/11/01 13:01:05;;;;;;;8.43;2.08;;;;;;;17.94;72.66;100080.94;10478070;28;20045;-72
2022/11/01 13:06:20;;;;;;;8.60;2.40;;;;;;;17.91;72.79;100083.78;10462165;28;20045;-69
2022/11/01 13:11:41;;;;;;;7.03;2.00;;;;;;;17.82;73.17;100095.81;10462756;28;20129;-69
2022/11/01 13:16:50;;;;;;;5.38;1.85;;;;;;;17.75;72.93;100104.25;10461780;28;20105;-69
2022/11/01 13:22:02;;;;;;;5.43;2.13;;;;;;;17.64;73.92;100108.41;10462320;28;20559;-69
2022/11/01 13:27:08;;;;;;;5.70;1.98;;;;;;;17.75;73.72;100117.56;10462635;28;20501;-69
2022/11/01 13:32:34;;;;;;;6.85;2.03;;;;;;;17.77;73.58;100123.66;10462872;28;20095;-70
2022/11/01 13:37:42;;;;;;;3.72;2.65;;;;;;;17.73;73.61;100119.44;10463417;28;20045;-69
2022/11/01 13:43:03;;;;;;;5.85;3.10;;;;;;;17.61;75.77;100128.97;10462397;28;20078;-69
2022/11/01 13:48:33;;;;;;;5.57;2.70;;;;;;;17.51;78.77;100138.44;10460362;28;20041;-68
2022/11/01 13:53:48;;;;;;;7.55;2.28;;;;;;;17.34;78.36;100140.28;10460476;28;20465;-68
2022/11/01 13:58:50;;;;;;;7.22;2.47;;;;;;;17.63;74.83;100143.06;10474317;28;20070;-69
2022/11/01 14:04:10;;;;;;;4.30;1.98;;;;;;;17.57;74.88;100140.75;10459015;28;20045;-69
2022/11/01 14:09:26;;;;;;;3.90;1.83;;;;;;;17.60;74.22;100144.06;10459228;28;20513;-69
2022/11/01 14:14:28;;;;;;;4.70;2.00;;;;;;;17.39;75.09;100145.34;10473814;28;20126;-69
2022/11/01 14:19:29;;;;;;;6.43;3.15;;;;;;;17.30;75.74;100140.56;10458184;28;20045;-69
2022/11/01 14:24:31;;;;;;;5.90;2.20;;;;;;;17.23;76.56;100144.53;10459457;28;20124;-69
2022/11/01 14:29:36;;;;;;;3.53;1.75;;;;;;;17.03;77.51;100146.50;10458122;28;20037;-70
2022/11/01 14:34:40;;;;;;;2.85;2.03;;;;;;;17.03;78.53;100143.00;10473741;28;20059;-70
2022/11/01 14:39:59;;;;;;;4.70;2.63;;;;;;;16.72;80.33;100149.13;10458441;28;20090;-70
2022/11/01 14:45:09;;;;;;;5.80;2.20;;;;;;;16.61;81.26;100147.94;10458761;28;20040;-70
2022/11/01 14:50:21;;;;;;;5.50;2.63;;;;;;;16.71;79.17;100142.97;10458776;28;20040;-70
2022/11/01 14:55:30;;;;;;;4.30;2.10;;;;;;;16.90;77.50;100143.69;10458024;28;20068;-70
2022/11/01 15:00:32;;;;;;;4.55;2.78;;;;;;;16.75;78.17;100143.69;10457234;28;20076;-70
2022/11/01 15:05:42;;;;;;;3.50;1.73;;;;;;;16.64;78.01;100142.47;10458053;28;20087;-69
2022/11/01 15:10:44;;;;;;;4.75;1.98;;;;;;;16.44;79.80;100155.09;10457152;28;20041;-70
2022/11/01 15:16:02;;;;;;;4.00;2.08;;;;;;;16.26;81.42;100156.94;10458319;28;20045;-69
2022/11/01 15:21:09;;;;;;;4.05;2.28;;;;;;;16.01;82.85;100152.91;10473296;28;20052;-70
2022/11/01 15:26:11;;;;;;;4.70;3.05;;;;;;;16.00;83.26;100153.00;10461303;28;20153;-70
2022/11/01 15:31:13;;;;;;;4.63;3.85;;;;;;;15.83;83.67;100161.81;10462706;28;20037;-70
2022/11/01 15:36:22;;;;;;;5.60;3.35;;;;;;;15.49;86.59;100163.50;10467433;28;20518;-70
2022/11/01 15:41:29;;;;;;;2.60;2.20;;;;;;;15.29;88.17;100164.50;10456805;28;20490;-69
2022/11/01 15:46:36;;;;;;;4.95;3.17;;;;;;;15.14;89.68;100152.03;10455003;28;20052;-70
2022/11/01 15:51:44;;;;;;;;;;;;;;;15.01;90.07;100159.69;10456724;28;20044;-70
2022/11/01 15:56:51;;;;;;;4.90;2.95;;;;;;;14.91;90.54;100157.53;10456581;28;19921;-70
2022/11/01 16:01:55;;;;;;;4.95;2.90;;;;;;;14.94;90.50;100162.69;10457324;28;20041;-69
2022/11/01 16:07:05;;;;;;;5.65;2.92;;;;;;;14.77;90.75;100160.84;10456840;28;20068;-70
2022/11/01 16:12:19;;;;;;;6.68;3.08;;;;;;;14.58;91.61;100160.84;10456244;28;20037;-70
2022/11/01 16:17:33;;;;;;;4.28;3.00;;;;;;;14.45;92.63;100157.03;10455941;28;20045;-69
2022/11/01 16:22:41;;;;;;;15.30;7.63;;;;;;;14.06;97.02;100161.38;10462613;28;20080;-69
2022/11/01 16:28:03;;;;;;;21.80;18.83;;;;;;;13.65;98.15;100175.53;10465184;28;20040;-69
2022/11/01 16:33:29;;;;;;;23.20;21.13;;;;;;;13.74;94.66;100190.97;10463910;28;20120;-71
2022/11/01 16:38:37;;;;;;;26.10;23.58;;;;;;;13.63;94.50;100197.59;10460090;28;20045;-69
2022/11/01 16:43:39;;;;;;;26.00;23.58;;;;;;;13.27;96.08;100199.94;10462885;28;20041;-69
2022/11/01 16:48:58;;;;;;;25.55;22.55;;;;;;;13.12;97.78;100205.78;10478238;28;20114;-69
2022/11/01 16:54:00;;;;;;;25.90;23.20;;;;;;;12.80;99.30;100200.00;10478727;28;20495;-70
2022/11/01 16:59:36;;;;;;;32.13;26.13;;;;;;;12.44;100.00;100218.06;10462700;28;20045;-70
2022/11/01 17:04:39;;;;;;;29.42;26.00;;;;;;;12.37;100.00;100229.72;10462150;28;20048;-69
2022/11/01 17:09:41;;;;;;;27.83;25.20;;;;;;;12.33;100.00;100225.47;10462243;28;20041;-70
2022/11/01 17:14:43;;;;;;;34.72;27.67;;;;;;;12.21;100.00;100234.66;10462014;28;20045;-69
2022/11/01 17:19:51;;;;;;;30.55;27.05;;;;;;;12.17;100.00;100240.09;10471605;22;20077;-73
2022/11/01 17:24:54;;;;;;;33.92;27.83;;;;;;;12.02;100.00;100252.91;10413771;28;20512;-73
2022/11/01 17:29:56;;;;;;;29.85;26.67;;;;;;;11.82;100.00;100252.66;10435176;28;20101;-73
2022/11/01 17:34:57;;;;;;;29.10;26.25;;;;;;;11.65;100.00;100249.75;10431596;28;20056;-73
2022/11/01 17:40:00;;;;;;;29.80;26.65;;;;;;;11.45;100.00;100258.28;10430965;28;20045;-73
2022/11/01 17:45:01;;;;;;;36.63;26.85;;;;;;;11.31;100.00;100256.09;10431635;28;20049;-73
2022/11/01 17:50:03;;;;;;;35.90;29.67;;;;;;;11.19;100.00;100252.06;10430633;28;20049;-73
2022/11/01 17:55:07;;;;;;;36.30;28.50;;;;;;;11.06;100.00;100243.69;10432779;28;20045;-73
2022/11/01 18:00:10;;;;;;;32.17;28.02;;;;;;;11.06;100.00;100254.19;10430357;28;20406;-73
2022/11/01 18:05:15;;;;;;;37.38;29.10;;;;;;;11.07;100.00;100249.84;10429991;28;20557;-73
2022/11/01 18:10:44;;;;;;;33.03;27.92;;;;;;;11.23;100.00;100255.47;10430701;28;20060;-74
2022/11/01 18:16:06;;;;;;;38.50;30.10;;;;;;;10.95;100.00;100243.16;10433875;28;20406;-74
2022/11/01 18:21:20;;;;;;;32.85;27.08;;;;;;;10.78;100.00;100241.03;10428950;28;20033;-74
2022/11/01 18:26:24;;;;;;;31.85;27.88;;;;;;;10.58;100.00;100243.34;10431531;28;20064;-74
2022/11/01 18:31:32;;;;;;;38.22;28.35;;;;;;;10.43;100.00;100238.53;10428891;28;20038;-74
2022/11/01 18:36:52;;;;;;;29.40;26.30;;;;;;;10.34;100.00;100245.75;10432337;28;20410;-74
2022/11/01 18:41:54;;;;;;;52.95;31.15;;;;;;;10.24;100.00;100253.91;10429478;28;20049;-73
2022/11/01 18:47:03;;;;;;;40.55;28.90;;;;;;;10.21;100.00;100256.63;10429481;28;20487;-74
2022/11/01 18:52:13;;;;;;;39.35;29.52;;;;;;;10.42;100.00;100266.59;10427615;28;20057;-74
2022/11/01 18:57:16;;;;;;;50.83;32.97;;;;;;;10.63;100.00;100259.03;10428810;28;20047;-74
2022/11/01 19:02:26;;;;;;;46.13;32.50;;;;;;;10.59;100.00;100260.88;10428017;28;20041;-73
2022/11/01 19:07:28;;;;;;;46.03;30.88;;;;;;;10.15;100.00;100264.69;10428314;28;20046;-73
2022/11/01 19:12:55;;;;;;;54.88;33.65;;;;;;;9.79;100.00;100277.84;10429149;28;20041;-73
2022/11/01 19:18:01;;;;;;;53.15;34.13;;;;;;;9.66;100.00;100279.03;10411850;28;20053;-73
2022/11/01 19:23:17;;;;;;;53.83;35.25;;;;;;;9.65;100.00;100282.53;10429099;28;20471;-73
2022/11/01 19:28:29;;;;;;;54.05;34.40;;;;;;;9.73;100.00;100294.59;10428473;28;20095;-73
2022/11/01 19:33:36;;;;;;;46.50;33.22;;;;;;;9.86;100.00;100298.63;10411155;28;20069;-74
2022/11/01 19:38:42;;;;;;;51.85;35.28;;;;;;;10.18;100.00;100293.47;10426514;28;20056;-74
2022/11/01 19:43:43;;;;;;;50.65;35.10;;;;;;;9.98;100.00;100307.13;10430494;28;20041;-74
2022/11/01 19:48:46;;;;;;;60.25;37.60;;;;;;;9.73;100.00;100301.59;10429998;28;20125;-73
2022/11/01 19:53:50;;;;;;;60.92;36.40;;;;;;;9.48;100.00;100301.34;10429747;28;20072;-73
2022/11/01 19:58:59;;;;;;;63.08;35.95;;;;;;;9.33;100.00;100319.13;10436347;28;20076;-73
2022/11/01 20:04:28;;;;;;;60.20;36.35;;;;;;;9.42;100.00;100327.69;10439349;28;20495;-74
2022/11/01 20:09:34;;;;;;;61.67;36.55;;;;;;;9.46;100.00;100321.47;10438291;28;20495;-75
2022/11/01 20:14:36;;;;;;;64.63;35.20;;;;;;;9.48;100.00;100331.06;10435713;28;20085;-74
2022/11/01 20:19:38;;;;;;;56.58;36.83;;;;;;;9.59;100.00;100328.19;10417104;28;20068;-74
2022/11/01 20:24:40;;;;;;;61.42;37.60;;;;;;;9.44;100.00;100333.78;10438337;28;20049;-73
2022/11/01 20:29:41;;;;;;;66.05;37.75;;;;;;;9.14;100.00;100327.44;10433843;28;20124;-75
2022/11/01 20:34:43;;;;;;;68.30;37.45;;;;;;;8.88;100.00;100339.31;10435178;28;20046;-74
2022/11/01 20:39:45;;;;;;;57.30;36.03;;;;;;;8.82;100.00;100342.94;10432755;28;20053;-73
2022/11/01 20:44:46;;;;;;;69.85;38.80;;;;;;;8.89;100.00;100342.81;10433646;28;20468;-74
2022/11/01 20:49:48;;;;;;;65.43;37.50;;;;;;;9.10;100.00;100345.84;10436870;28;20053;-74
2022/11/01 20:54:50;;;;;;;70.18;38.83;;;;;;;8.92;100.00;100348.84;10433399;28;20052;-74
2022/11/01 20:59:52;;;;;;;65.18;37.42;;;;;;;8.75;100.00;100348.31;10434483;28;20052;-74
2022/11/01 21:05:04;;;;;;;61.70;36.33;;;;;;;8.68;100.00;100349.34;10432218;28;20049;-74
2022/11/01 21:10:30;;;;;;;63.35;37.35;;;;;;;8.63;100.00;100345.91;10434414;28;20475;-74
2022/11/01 21:15:37;;;;;;;53.20;35.77;;;;;;;8.53;100.00;100343.47;10433118;28;20053;-74
2022/11/01 21:20:47;;;;;;;78.00;41.70;;;;;;;8.63;100.00;100343.31;10415873;28;20049;-74
2022/11/01 21:25:52;;;;;;;75.97;43.20;;;;;;;8.64;100.00;100348.53;10430682;28;20509;-74
2022/11/01 21:31:00;;;;;;;71.70;41.65;;;;;;;9.02;100.00;100346.91;10434356;28;20037;-73
2022/11/01 21:36:20;;;;;;;66.40;38.20;;;;;;;9.31;100.00;100341.91;10428441;28;20095;-73
2022/11/01 21:41:25;;;;;;;58.58;36.75;;;;;;;9.09;100.00;100340.66;10428628;28;20084;-73
2022/11/01 21:46:33;;;;;;;66.13;38.90;;;;;;;8.82;100.00;100337.69;10427036;28;20127;-72
2022/11/01 21:51:35;;;;;;;58.45;36.30;;;;;;;8.54;100.00;100332.13;10428952;28;20395;-73
2022/11/01 21:56:36;;;;;;;63.22;36.75;;;;;;;8.56;100.00;100335.56;10430417;28;20042;-73
2022/11/01 22:01:41;;;;;;;63.63;36.88;;;;;;;8.71;100.00;100344.88;10410360;28;20041;-73
2022/11/01 22:06:44;;;;;;;47.00;29.83;;;;;;;8.62;100.00;100331.09;10427486;28;20045;-73
2022/11/01 22:11:46;;;;;;;32.60;24.92;;;;;;;8.42;100.00;100326.25;10424948;28;20411;-73
2022/11/01 22:16:47;;;;;;;22.20;17.83;;;;;;;8.38;100.00;100333.28;10426740;28;20099;-73
2022/11/01 22:21:49;;;;;;;10.95;9.85;;;;;;;8.47;100.00;100335.75;10424353;28;20096;-73
2022/11/01 22:26:50;;;;;;;6.50;5.80;;;;;;;8.61;100.00;100337.25;10424822;28;20068;-73
2022/11/01 22:31:59;;;;;;;6.70;4.88;;;;;;;8.87;100.00;100336.75;10426289;28;20042;-73
2022/11/01 22:37:11;;;;;;;5.82;4.00;;;;;;;9.06;100.00;100336.31;10427174;28;20045;-73
2022/11/01 22:42:14;;;;;;;7.18;3.75;;;;;;;9.17;100.00;100335.25;10422693;28;20045;-73
2022/11/01 22:47:21;;;;;;;6.00;3.00;;;;;;;9.13;100.00;100339.69;10423736;28;20064;-73
2022/11/01 22:52:42;;;;;;;3.58;2.75;;;;;;;9.08;100.00;100345.03;10423016;28;20053;-73
2022/11/01 22:57:48;;;;;;;3.75;1.70;;;;;;;9.12;100.00;100343.22;10423655;28;20067;-73
2022/11/01 23:02:49;;;;;;;2.53;1.98;;;;;;;8.94;100.00;100348.81;10423614;28;20060;-73
2022/11/01 23:07:54;;;;;;;5.75;2.75;;;;;;;8.51;100.00;100352.28;10403998;28;20049;-73
2022/11/01 23:18:31;;;;;;;20.45;18.33;;;;;;;8.33;100.00;100362.16;10423115;28;20038;-73